sensor_id;sensor_type;location;lat;lon;timestamp;temperature;humidity
14401;DHT22;7285;50.894;5.462;2023-07-24T00:01:07;17.40;99.90
14401;DHT22;7285;50.894;5.462;2023-07-24T00:03:34;17.40;99.90
14401;DHT22;7285;50.894;5.462;2023-07-24T00:06:01;17.40;99.90
14401;DHT22;7285;50.894;5.462;2023-07-24T00:08:30;17.40;99.90
14401;DHT22;7285;50.894;5.462;2023-07-24T00:10:57;17.30;99.90
14401;DHT22;7285;50.894;5.462;2023-07-24T00:13:24;17.40;99.90
14401;DHT22;7285;50.894;5.462;2023-07-24T00:15:51;17.40;99.90
14401;DHT22;7285;50.894;5.462;2023-07-24T00:18:18;17.50;99.90
14401;DHT22;7285;50.894;5.462;2023-07-24T00:20:45;17.40;99.90
14401;DHT22;7285;50.894;5.462;2023-07-24T00:23:12;17.60;99.90
14401;DHT22;7285;50.894;5.462;2023-07-24T00:25:40;17.60;99.90
14401;DHT22;7285;50.894;5.462;2023-07-24T00:28:07;17.60;99.90
14401;DHT22;7285;50.894;5.462;2023-07-24T00:30:34;17.60;99.90
14401;DHT22;7285;50.894;5.462;2023-07-24T00:33:01;17.60;99.90
14401;DHT22;7285;50.894;5.462;2023-07-24T00:35:28;17.50;99.90
14401;DHT22;7285;50.894;5.462;2023-07-24T00:37:56;17.50;99.90
14401;DHT22;7285;50.894;5.462;2023-07-24T00:40:23;17.50;99.90
14401;DHT22;7285;50.894;5.462;2023-07-24T00:42:51;17.70;99.90
14401;DHT22;7285;50.894;5.462;2023-07-24T00:45:18;17.50;99.90
14401;DHT22;7285;50.894;5.462;2023-07-24T00:47:46;17.70;99.90
14401;DHT22;7285;50.894;5.462;2023-07-24T00:50:13;17.70;99.90
14401;DHT22;7285;50.894;5.462;2023-07-24T00:52:41;17.50;99.90
14401;DHT22;7285;50.894;5.462;2023-07-24T00:55:09;17.80;99.90
14401;DHT22;7285;50.894;5.462;2023-07-24T00:57:37;17.60;99.90
14401;DHT22;7285;50.894;5.462;2023-07-24T01:00:07;17.60;99.90
14401;DHT22;7285;50.894;5.462;2023-07-24T01:02:34;17.70;99.90
14401;DHT22;7285;50.894;5.462;2023-07-24T01:05:03;17.70;99.90
14401;DHT22;7285;50.894;5.462;2023-07-24T01:07:32;17.70;99.90
14401;DHT22;7285;50.894;5.462;2023-07-24T01:09:59;17.60;99.90
14401;DHT22;7285;50.894;5.462;2023-07-24T01:12:31;17.60;99.90
14401;DHT22;7285;50.894;5.462;2023-07-24T01:15:03;17.60;99.90
14401;DHT22;7285;50.894;5.462;2023-07-24T01:17:39;17.70;99.90
14401;DHT22;7285;50.894;5.462;2023-07-24T01:20:09;17.70;99.90
14401;DHT22;7285;50.894;5.462;2023-07-24T01:22:39;17.70;99.90
14401;DHT22;7285;50.894;5.462;2023-07-24T01:25:18;17.60;99.90
14401;DHT22;7285;50.894;5.462;2023-07-24T01:27:51;17.70;99.90
14401;DHT22;7285;50.894;5.462;2023-07-24T01:30:19;17.60;99.90
14401;DHT22;7285;50.894;5.462;2023-07-24T01:32:47;17.70;99.90
14401;DHT22;7285;50.894;5.462;2023-07-24T01:35:17;17.60;99.90
14401;DHT22;7285;50.894;5.462;2023-07-24T01:37:45;17.70;99.90
14401;DHT22;7285;50.894;5.462;2023-07-24T01:40:13;17.60;99.90
14401;DHT22;7285;50.894;5.462;2023-07-24T01:42:43;17.70;99.90
14401;DHT22;7285;50.894;5.462;2023-07-24T01:45:12;17.70;99.90
14401;DHT22;7285;50.894;5.462;2023-07-24T01:47:39;17.60;99.90
14401;DHT22;7285;50.894;5.462;2023-07-24T01:50:07;17.70;99.90
14401;DHT22;7285;50.894;5.462;2023-07-24T01:52:34;17.60;99.90
14401;DHT22;7285;50.894;5.462;2023-07-24T01:55:01;17.70;99.90
14401;DHT22;7285;50.894;5.462;2023-07-24T01:57:28;17.70;99.90
14401;DHT22;7285;50.894;5.462;2023-07-24T01:59:55;17.70;99.90
14401;DHT22;7285;50.894;5.462;2023-07-24T02:02:26;17.60;99.90
14401;DHT22;7285;50.894;5.462;2023-07-24T02:04:53;17.60;99.90
14401;DHT22;7285;50.894;5.462;2023-07-24T02:07:20;17.50;99.90
14401;DHT22;7285;50.894;5.462;2023-07-24T02:09:48;17.60;99.90
14401;DHT22;7285;50.894;5.462;2023-07-24T02:12:14;17.50;99.90
14401;DHT22;7285;50.894;5.462;2023-07-24T02:14:41;17.70;99.90
14401;DHT22;7285;50.894;5.462;2023-07-24T02:17:08;17.50;99.90
14401;DHT22;7285;50.894;5.462;2023-07-24T02:19:39;17.40;99.90
14401;DHT22;7285;50.894;5.462;2023-07-24T02:22:06;17.50;99.90
14401;DHT22;7285;50.894;5.462;2023-07-24T02:24:33;17.50;99.90
14401;DHT22;7285;50.894;5.462;2023-07-24T02:27:00;17.40;99.90
14401;DHT22;7285;50.894;5.462;2023-07-24T02:29:27;17.60;99.90
14401;DHT22;7285;50.894;5.462;2023-07-24T02:31:54;17.50;99.90
14401;DHT22;7285;50.894;5.462;2023-07-24T02:34:21;17.60;99.90
14401;DHT22;7285;50.894;5.462;2023-07-24T02:36:53;17.40;99.90
14401;DHT22;7285;50.894;5.462;2023-07-24T02:39:20;17.50;99.90
14401;DHT22;7285;50.894;5.462;2023-07-24T02:41:48;17.50;99.90
14401;DHT22;7285;50.894;5.462;2023-07-24T02:44:15;17.40;99.90
14401;DHT22;7285;50.894;5.462;2023-07-24T02:46:45;17.40;99.90
14401;DHT22;7285;50.894;5.462;2023-07-24T02:49:12;17.40;99.90
14401;DHT22;7285;50.894;5.462;2023-07-24T02:51:40;17.50;99.90
14401;DHT22;7285;50.894;5.462;2023-07-24T02:54:08;17.40;99.90
14401;DHT22;7285;50.894;5.462;2023-07-24T02:56:35;17.30;99.90
14401;DHT22;7285;50.894;5.462;2023-07-24T02:59:02;17.40;99.90
14401;DHT22;7285;50.894;5.462;2023-07-24T03:01:29;17.30;99.90
14401;DHT22;7285;50.894;5.462;2023-07-24T03:03:57;17.30;99.90
14401;DHT22;7285;50.894;5.462;2023-07-24T03:06:25;17.30;99.90
14401;DHT22;7285;50.894;5.462;2023-07-24T03:08:52;17.50;99.90
14401;DHT22;7285;50.894;5.462;2023-07-24T03:11:20;17.30;99.90
14401;DHT22;7285;50.894;5.462;2023-07-24T03:13:47;17.50;99.90
14401;DHT22;7285;50.894;5.462;2023-07-24T03:16:14;17.30;99.90
14401;DHT22;7285;50.894;5.462;2023-07-24T03:18:42;17.40;99.90
14401;DHT22;7285;50.894;5.462;2023-07-24T03:21:09;17.30;99.90
14401;DHT22;7285;50.894;5.462;2023-07-24T03:23:36;17.30;99.90
14401;DHT22;7285;50.894;5.462;2023-07-24T03:26:03;17.40;99.90
14401;DHT22;7285;50.894;5.462;2023-07-24T03:28:32;17.20;99.90
14401;DHT22;7285;50.894;5.462;2023-07-24T03:30:59;17.30;99.90
14401;DHT22;7285;50.894;5.462;2023-07-24T03:33:26;17.40;99.90
14401;DHT22;7285;50.894;5.462;2023-07-24T03:35:53;17.30;99.90
14401;DHT22;7285;50.894;5.462;2023-07-24T03:38:20;17.40;99.90
14401;DHT22;7285;50.894;5.462;2023-07-24T03:40:47;17.30;99.90
14401;DHT22;7285;50.894;5.462;2023-07-24T03:43:15;17.40;99.90
14401;DHT22;7285;50.894;5.462;2023-07-24T03:45:43;17.20;99.90
14401;DHT22;7285;50.894;5.462;2023-07-24T03:48:11;17.30;99.90
14401;DHT22;7285;50.894;5.462;2023-07-24T03:50:37;17.20;99.90
14401;DHT22;7285;50.894;5.462;2023-07-24T03:53:04;17.30;99.90
14401;DHT22;7285;50.894;5.462;2023-07-24T03:55:31;17.40;99.90
14401;DHT22;7285;50.894;5.462;2023-07-24T03:57:58;17.30;99.90
14401;DHT22;7285;50.894;5.462;2023-07-24T04:00:25;17.20;99.90
14401;DHT22;7285;50.894;5.462;2023-07-24T04:02:54;17.30;99.90
14401;DHT22;7285;50.894;5.462;2023-07-24T04:05:21;17.30;99.90
14401;DHT22;7285;50.894;5.462;2023-07-24T04:07:49;17.30;99.90
14401;DHT22;7285;50.894;5.462;2023-07-24T04:10:16;17.20;99.90
14401;DHT22;7285;50.894;5.462;2023-07-24T04:12:43;17.20;99.90
14401;DHT22;7285;50.894;5.462;2023-07-24T04:15:10;17.10;99.90
14401;DHT22;7285;50.894;5.462;2023-07-24T04:17:37;17.30;99.90
14401;DHT22;7285;50.894;5.462;2023-07-24T04:20:07;17.10;99.90
14401;DHT22;7285;50.894;5.462;2023-07-24T04:22:34;17.10;99.90
14401;DHT22;7285;50.894;5.462;2023-07-24T04:25:01;17.30;99.90
14401;DHT22;7285;50.894;5.462;2023-07-24T04:27:29;17.30;99.90
14401;DHT22;7285;50.894;5.462;2023-07-24T04:29:55;17.30;99.90
14401;DHT22;7285;50.894;5.462;2023-07-24T04:32:23;17.20;99.90
14401;DHT22;7285;50.894;5.462;2023-07-24T04:34:50;17.40;99.90
14401;DHT22;7285;50.894;5.462;2023-07-24T04:37:18;17.10;99.90
14401;DHT22;7285;50.894;5.462;2023-07-24T04:39:45;17.10;99.90
14401;DHT22;7285;50.894;5.462;2023-07-24T04:42:12;17.10;99.90
14401;DHT22;7285;50.894;5.462;2023-07-24T04:44:39;17.10;99.90
14401;DHT22;7285;50.894;5.462;2023-07-24T04:47:06;17.20;99.90
14401;DHT22;7285;50.894;5.462;2023-07-24T04:49:32;17.30;99.90
14401;DHT22;7285;50.894;5.462;2023-07-24T04:51:59;17.20;99.90
14401;DHT22;7285;50.894;5.462;2023-07-24T04:54:28;17.20;99.90
14401;DHT22;7285;50.894;5.462;2023-07-24T04:56:55;17.20;99.90
14401;DHT22;7285;50.894;5.462;2023-07-24T04:59:22;17.30;99.90
14401;DHT22;7285;50.894;5.462;2023-07-24T05:01:49;17.20;99.90
14401;DHT22;7285;50.894;5.462;2023-07-24T05:04:16;17.20;99.90
14401;DHT22;7285;50.894;5.462;2023-07-24T05:06:43;17.30;99.90
14401;DHT22;7285;50.894;5.462;2023-07-24T05:09:10;17.30;99.90
14401;DHT22;7285;50.894;5.462;2023-07-24T05:11:38;17.50;99.90
14401;DHT22;7285;50.894;5.462;2023-07-24T05:14:05;17.50;99.90
14401;DHT22;7285;50.894;5.462;2023-07-24T05:16:32;17.50;99.90
14401;DHT22;7285;50.894;5.462;2023-07-24T05:18:59;17.70;99.90
14401;DHT22;7285;50.894;5.462;2023-07-24T05:21:26;17.70;99.90
14401;DHT22;7285;50.894;5.462;2023-07-24T05:23:53;17.60;99.90
14401;DHT22;7285;50.894;5.462;2023-07-24T05:26:19;17.70;99.90
14401;DHT22;7285;50.894;5.462;2023-07-24T05:28:49;17.60;99.90
14401;DHT22;7285;50.894;5.462;2023-07-24T05:31:15;17.80;99.90
14401;DHT22;7285;50.894;5.462;2023-07-24T05:33:42;17.70;99.90
14401;DHT22;7285;50.894;5.462;2023-07-24T05:36:09;17.80;99.90
14401;DHT22;7285;50.894;5.462;2023-07-24T05:38:37;17.80;99.90
14401;DHT22;7285;50.894;5.462;2023-07-24T05:41:04;17.90;99.90
14401;DHT22;7285;50.894;5.462;2023-07-24T05:43:31;17.80;99.90
14401;DHT22;7285;50.894;5.462;2023-07-24T05:45:59;17.80;99.90
14401;DHT22;7285;50.894;5.462;2023-07-24T05:48:26;17.90;99.90
14401;DHT22;7285;50.894;5.462;2023-07-24T05:50:53;17.80;99.90
14401;DHT22;7285;50.894;5.462;2023-07-24T05:53:20;17.90;99.90
14401;DHT22;7285;50.894;5.462;2023-07-24T05:55:47;18.00;99.90
14401;DHT22;7285;50.894;5.462;2023-07-24T05:58:14;18.00;99.90
14401;DHT22;7285;50.894;5.462;2023-07-24T06:00:42;17.90;99.90
14401;DHT22;7285;50.894;5.462;2023-07-24T06:03:10;18.00;99.90
14401;DHT22;7285;50.894;5.462;2023-07-24T06:05:37;17.80;99.90
14401;DHT22;7285;50.894;5.462;2023-07-24T06:08:04;17.80;99.90
14401;DHT22;7285;50.894;5.462;2023-07-24T06:10:34;17.80;99.90
14401;DHT22;7285;50.894;5.462;2023-07-24T06:13:01;17.70;99.90
14401;DHT22;7285;50.894;5.462;2023-07-24T06:15:28;17.70;99.90
14401;DHT22;7285;50.894;5.462;2023-07-24T06:17:55;17.60;99.90
14401;DHT22;7285;50.894;5.462;2023-07-24T06:20:23;17.70;99.90
14401;DHT22;7285;50.894;5.462;2023-07-24T06:22:50;17.60;99.90
14401;DHT22;7285;50.894;5.462;2023-07-24T06:25:17;17.70;99.90
14401;DHT22;7285;50.894;5.462;2023-07-24T06:27:44;17.60;99.90
14401;DHT22;7285;50.894;5.462;2023-07-24T06:30:11;17.60;99.90
14401;DHT22;7285;50.894;5.462;2023-07-24T06:32:38;17.50;99.90
14401;DHT22;7285;50.894;5.462;2023-07-24T06:35:06;17.60;99.90
14401;DHT22;7285;50.894;5.462;2023-07-24T06:37:34;17.60;99.90
14401;DHT22;7285;50.894;5.462;2023-07-24T06:40:02;17.60;99.90
14401;DHT22;7285;50.894;5.462;2023-07-24T06:42:29;17.70;99.90
14401;DHT22;7285;50.894;5.462;2023-07-24T06:44:56;17.60;99.90
14401;DHT22;7285;50.894;5.462;2023-07-24T06:47:23;17.80;99.90
14401;DHT22;7285;50.894;5.462;2023-07-24T06:49:50;17.70;99.90
14401;DHT22;7285;50.894;5.462;2023-07-24T06:52:17;17.80;99.90
14401;DHT22;7285;50.894;5.462;2023-07-24T06:54:46;17.90;99.90
14401;DHT22;7285;50.894;5.462;2023-07-24T06:57:13;17.80;99.90
14401;DHT22;7285;50.894;5.462;2023-07-24T06:59:41;18.00;99.90
14401;DHT22;7285;50.894;5.462;2023-07-24T07:02:08;17.90;99.90
14401;DHT22;7285;50.894;5.462;2023-07-24T07:04:35;18.00;99.90
14401;DHT22;7285;50.894;5.462;2023-07-24T07:07:02;17.90;99.90
14401;DHT22;7285;50.894;5.462;2023-07-24T07:09:29;17.70;99.90
14401;DHT22;7285;50.894;5.462;2023-07-24T07:11:58;17.70;99.90
14401;DHT22;7285;50.894;5.462;2023-07-24T07:14:25;17.90;99.90
14401;DHT22;7285;50.894;5.462;2023-07-24T07:16:52;18.10;99.90
14401;DHT22;7285;50.894;5.462;2023-07-24T07:19:19;18.20;99.90
14401;DHT22;7285;50.894;5.462;2023-07-24T07:21:46;18.40;99.90
14401;DHT22;7285;50.894;5.462;2023-07-24T07:24:13;18.20;99.90
14401;DHT22;7285;50.894;5.462;2023-07-24T07:26:40;18.20;99.90
14401;DHT22;7285;50.894;5.462;2023-07-24T07:29:08;18.20;99.90
14401;DHT22;7285;50.894;5.462;2023-07-24T07:31:35;18.30;99.90
14401;DHT22;7285;50.894;5.462;2023-07-24T07:34:02;18.20;99.90
14401;DHT22;7285;50.894;5.462;2023-07-24T07:36:29;18.30;99.90
14401;DHT22;7285;50.894;5.462;2023-07-24T07:38:56;18.00;99.90
14401;DHT22;7285;50.894;5.462;2023-07-24T07:41:23;18.00;99.90
14401;DHT22;7285;50.894;5.462;2023-07-24T07:43:50;17.90;99.90
14401;DHT22;7285;50.894;5.462;2023-07-24T07:46:19;18.10;99.90
14401;DHT22;7285;50.894;5.462;2023-07-24T07:48:44;18.20;99.90
14401;DHT22;7285;50.894;5.462;2023-07-24T07:51:12;18.20;99.90
14401;DHT22;7285;50.894;5.462;2023-07-24T07:53:39;18.30;99.90
14401;DHT22;7285;50.894;5.462;2023-07-24T07:56:06;18.40;99.90
14401;DHT22;7285;50.894;5.462;2023-07-24T07:58:33;18.40;99.90
14401;DHT22;7285;50.894;5.462;2023-07-24T08:01:03;18.60;99.90
14401;DHT22;7285;50.894;5.462;2023-07-24T08:03:32;18.60;99.90
14401;DHT22;7285;50.894;5.462;2023-07-24T08:06:00;18.90;99.90
14401;DHT22;7285;50.894;5.462;2023-07-24T08:08:27;19.10;99.90
14401;DHT22;7285;50.894;5.462;2023-07-24T08:10:54;19.30;99.90
14401;DHT22;7285;50.894;5.462;2023-07-24T08:13:21;19.60;99.90
14401;DHT22;7285;50.894;5.462;2023-07-24T08:15:49;19.80;99.90
14401;DHT22;7285;50.894;5.462;2023-07-24T08:18:16;19.90;99.90
14401;DHT22;7285;50.894;5.462;2023-07-24T08:20:45;19.90;99.90
14401;DHT22;7285;50.894;5.462;2023-07-24T08:23:12;19.90;99.90
14401;DHT22;7285;50.894;5.462;2023-07-24T08:25:39;19.90;99.90
14401;DHT22;7285;50.894;5.462;2023-07-24T08:28:06;19.70;99.90
14401;DHT22;7285;50.894;5.462;2023-07-24T08:30:34;19.80;99.90
14401;DHT22;7285;50.894;5.462;2023-07-24T08:33:01;19.70;99.90
14401;DHT22;7285;50.894;5.462;2023-07-24T08:35:28;19.70;99.90
14401;DHT22;7285;50.894;5.462;2023-07-24T08:37:56;19.50;99.90
14401;DHT22;7285;50.894;5.462;2023-07-24T08:40:23;19.40;99.90
14401;DHT22;7285;50.894;5.462;2023-07-24T08:42:50;19.40;99.90
14401;DHT22;7285;50.894;5.462;2023-07-24T08:45:18;19.40;99.90
14401;DHT22;7285;50.894;5.462;2023-07-24T08:47:47;19.50;99.90
14401;DHT22;7285;50.894;5.462;2023-07-24T08:50:14;19.50;99.90
14401;DHT22;7285;50.894;5.462;2023-07-24T08:52:43;19.70;99.90
14401;DHT22;7285;50.894;5.462;2023-07-24T08:55:13;19.60;99.90
14401;DHT22;7285;50.894;5.462;2023-07-24T08:57:40;19.60;99.90
14401;DHT22;7285;50.894;5.462;2023-07-24T09:00:08;19.70;99.90
14401;DHT22;7285;50.894;5.462;2023-07-24T09:02:35;19.60;99.90
14401;DHT22;7285;50.894;5.462;2023-07-24T09:05:03;19.50;99.90
14401;DHT22;7285;50.894;5.462;2023-07-24T09:07:30;19.60;99.90
14401;DHT22;7285;50.894;5.462;2023-07-24T09:09:57;19.50;99.90
14401;DHT22;7285;50.894;5.462;2023-07-24T09:12:26;19.50;99.90
14401;DHT22;7285;50.894;5.462;2023-07-24T09:15:03;19.40;99.90
14401;DHT22;7285;50.894;5.462;2023-07-24T09:17:30;19.30;99.90
14401;DHT22;7285;50.894;5.462;2023-07-24T09:19:57;19.30;99.90
14401;DHT22;7285;50.894;5.462;2023-07-24T09:22:24;19.30;99.90
14401;DHT22;7285;50.894;5.462;2023-07-24T09:24:54;19.20;99.90
14401;DHT22;7285;50.894;5.462;2023-07-24T09:27:27;19.20;99.90
14401;DHT22;7285;50.894;5.462;2023-07-24T09:29:55;19.10;99.90
14401;DHT22;7285;50.894;5.462;2023-07-24T09:32:28;19.10;99.90
14401;DHT22;7285;50.894;5.462;2023-07-24T09:34:57;19.00;99.90
14401;DHT22;7285;50.894;5.462;2023-07-24T09:37:25;18.90;99.90
14401;DHT22;7285;50.894;5.462;2023-07-24T09:39:52;18.80;99.90
14401;DHT22;7285;50.894;5.462;2023-07-24T09:42:29;18.90;99.90
14401;DHT22;7285;50.894;5.462;2023-07-24T09:44:56;18.90;99.90
14401;DHT22;7285;50.894;5.462;2023-07-24T09:47:23;18.80;99.90
14401;DHT22;7285;50.894;5.462;2023-07-24T09:49:51;18.60;99.90
14401;DHT22;7285;50.894;5.462;2023-07-24T09:52:19;18.80;99.90
14401;DHT22;7285;50.894;5.462;2023-07-24T09:54:54;18.70;99.90
14401;DHT22;7285;50.894;5.462;2023-07-24T09:57:22;18.40;99.90
14401;DHT22;7285;50.894;5.462;2023-07-24T09:59:52;18.40;99.90
14401;DHT22;7285;50.894;5.462;2023-07-24T10:02:19;18.40;99.90
14401;DHT22;7285;50.894;5.462;2023-07-24T10:04:46;18.40;99.90
14401;DHT22;7285;50.894;5.462;2023-07-24T10:07:14;18.40;99.90
14401;DHT22;7285;50.894;5.462;2023-07-24T10:09:43;18.30;99.90
14401;DHT22;7285;50.894;5.462;2023-07-24T10:12:10;18.60;99.90
14401;DHT22;7285;50.894;5.462;2023-07-24T10:14:37;18.50;99.90
14401;DHT22;7285;50.894;5.462;2023-07-24T10:17:06;18.30;99.90
14401;DHT22;7285;50.894;5.462;2023-07-24T10:19:38;18.20;99.90
14401;DHT22;7285;50.894;5.462;2023-07-24T10:22:06;18.00;99.90
14401;DHT22;7285;50.894;5.462;2023-07-24T10:24:33;17.90;99.90
14401;DHT22;7285;50.894;5.462;2023-07-24T10:27:03;17.80;99.90
14401;DHT22;7285;50.894;5.462;2023-07-24T10:29:34;17.60;99.90
14401;DHT22;7285;50.894;5.462;2023-07-24T10:32:02;17.60;99.90
14401;DHT22;7285;50.894;5.462;2023-07-24T10:34:37;17.50;99.90
14401;DHT22;7285;50.894;5.462;2023-07-24T10:37:07;17.60;99.90
14401;DHT22;7285;50.894;5.462;2023-07-24T10:39:38;17.50;99.90
14401;DHT22;7285;50.894;5.462;2023-07-24T10:42:07;17.60;99.90
14401;DHT22;7285;50.894;5.462;2023-07-24T10:44:34;17.40;99.90
14401;DHT22;7285;50.894;5.462;2023-07-24T10:47:01;17.40;99.90
14401;DHT22;7285;50.894;5.462;2023-07-24T10:49:29;17.40;99.90
14401;DHT22;7285;50.894;5.462;2023-07-24T10:51:58;17.50;99.90
14401;DHT22;7285;50.894;5.462;2023-07-24T10:54:25;17.50;99.90
14401;DHT22;7285;50.894;5.462;2023-07-24T10:56:58;17.60;99.90
14401;DHT22;7285;50.894;5.462;2023-07-24T10:59:36;18.00;99.90
14401;DHT22;7285;50.894;5.462;2023-07-24T11:02:04;18.20;99.90
14401;DHT22;7285;50.894;5.462;2023-07-24T11:04:32;18.20;99.90
14401;DHT22;7285;50.894;5.462;2023-07-24T11:07:01;18.10;99.90
14401;DHT22;7285;50.894;5.462;2023-07-24T11:09:35;17.80;99.90
14401;DHT22;7285;50.894;5.462;2023-07-24T11:12:12;17.80;99.90
14401;DHT22;7285;50.894;5.462;2023-07-24T11:14:47;17.90;99.90
14401;DHT22;7285;50.894;5.462;2023-07-24T11:17:14;17.80;99.90
14401;DHT22;7285;50.894;5.462;2023-07-24T11:19:41;17.80;99.90
14401;DHT22;7285;50.894;5.462;2023-07-24T11:22:10;17.90;99.90
14401;DHT22;7285;50.894;5.462;2023-07-24T11:24:45;17.60;99.90
14401;DHT22;7285;50.894;5.462;2023-07-24T11:27:13;17.70;99.90
14401;DHT22;7285;50.894;5.462;2023-07-24T11:29:41;17.90;99.90
14401;DHT22;7285;50.894;5.462;2023-07-24T11:32:08;17.90;99.90
14401;DHT22;7285;50.894;5.462;2023-07-24T11:34:35;18.10;99.90
14401;DHT22;7285;50.894;5.462;2023-07-24T11:37:04;18.40;99.90
14401;DHT22;7285;50.894;5.462;2023-07-24T11:39:33;18.80;99.90
14401;DHT22;7285;50.894;5.462;2023-07-24T11:42:01;19.30;99.90
14401;DHT22;7285;50.894;5.462;2023-07-24T11:44:28;19.60;99.90
14401;DHT22;7285;50.894;5.462;2023-07-24T11:47:02;20.10;99.90
14401;DHT22;7285;50.894;5.462;2023-07-24T11:49:29;20.70;99.90
14401;DHT22;7285;50.894;5.462;2023-07-24T11:52:01;20.70;99.90
14401;DHT22;7285;50.894;5.462;2023-07-24T11:54:33;20.70;99.90
14401;DHT22;7285;50.894;5.462;2023-07-24T11:57:00;20.80;99.90
14401;DHT22;7285;50.894;5.462;2023-07-24T11:59:27;21.30;99.90
14401;DHT22;7285;50.894;5.462;2023-07-24T12:01:54;21.60;99.90
14401;DHT22;7285;50.894;5.462;2023-07-24T12:04:21;21.90;99.90
14401;DHT22;7285;50.894;5.462;2023-07-24T12:06:48;21.80;99.90
14401;DHT22;7285;50.894;5.462;2023-07-24T12:09:15;21.70;1.00
14401;DHT22;7285;50.894;5.462;2023-07-24T12:11:44;20.90;1.00
14401;DHT22;7285;50.894;5.462;2023-07-24T12:14:13;21.20;99.90
14401;DHT22;7285;50.894;5.462;2023-07-24T12:16:40;21.60;99.90
14401;DHT22;7285;50.894;5.462;2023-07-24T12:19:07;21.40;1.00
14401;DHT22;7285;50.894;5.462;2023-07-24T12:21:34;21.00;1.00
14401;DHT22;7285;50.894;5.462;2023-07-24T12:24:01;20.90;1.00
14401;DHT22;7285;50.894;5.462;2023-07-24T12:26:28;20.70;1.00
14401;DHT22;7285;50.894;5.462;2023-07-24T12:28:57;20.50;99.90
14401;DHT22;7285;50.894;5.462;2023-07-24T12:31:25;20.60;1.00
14401;DHT22;7285;50.894;5.462;2023-07-24T12:33:52;20.50;91.60
14401;DHT22;7285;50.894;5.462;2023-07-24T12:36:19;20.60;99.90
14401;DHT22;7285;50.894;5.462;2023-07-24T12:38:46;20.40;1.00
14401;DHT22;7285;50.894;5.462;2023-07-24T12:41:14;20.20;1.00
14401;DHT22;7285;50.894;5.462;2023-07-24T12:43:43;20.00;1.00
14401;DHT22;7285;50.894;5.462;2023-07-24T12:46:12;19.90;1.00
14401;DHT22;7285;50.894;5.462;2023-07-24T12:48:39;19.60;99.90
14401;DHT22;7285;50.894;5.462;2023-07-24T12:51:06;19.50;99.90
14401;DHT22;7285;50.894;5.462;2023-07-24T12:53:33;19.50;99.90
14401;DHT22;7285;50.894;5.462;2023-07-24T12:56:00;19.50;99.90
14401;DHT22;7285;50.894;5.462;2023-07-24T12:58:27;19.50;1.00
14401;DHT22;7285;50.894;5.462;2023-07-24T13:00:54;19.30;1.00
14401;DHT22;7285;50.894;5.462;2023-07-24T13:03:22;19.50;99.90
14401;DHT22;7285;50.894;5.462;2023-07-24T13:05:50;19.40;47.80
14401;DHT22;7285;50.894;5.462;2023-07-24T13:08:17;19.00;99.90
14401;DHT22;7285;50.894;5.462;2023-07-24T13:10:47;19.00;1.00
14401;DHT22;7285;50.894;5.462;2023-07-24T13:13:13;19.00;99.90
14401;DHT22;7285;50.894;5.462;2023-07-24T13:15:40;19.10;99.90
14401;DHT22;7285;50.894;5.462;2023-07-24T13:18:07;19.60;1.00
14401;DHT22;7285;50.894;5.462;2023-07-24T13:20:35;19.90;1.00
14401;DHT22;7285;50.894;5.462;2023-07-24T13:23:02;20.30;99.90
14401;DHT22;7285;50.894;5.462;2023-07-24T13:25:29;21.00;1.00
14401;DHT22;7285;50.894;5.462;2023-07-24T13:27:56;21.50;1.00
14401;DHT22;7285;50.894;5.462;2023-07-24T13:30:23;21.50;1.00
14401;DHT22;7285;50.894;5.462;2023-07-24T13:32:50;21.90;1.00
14401;DHT22;7285;50.894;5.462;2023-07-24T13:35:17;22.30;1.00
14401;DHT22;7285;50.894;5.462;2023-07-24T13:37:46;22.40;99.90
14401;DHT22;7285;50.894;5.462;2023-07-24T13:40:13;22.80;99.90
14401;DHT22;7285;50.894;5.462;2023-07-24T13:42:40;23.10;1.00
14401;DHT22;7285;50.894;5.462;2023-07-24T13:45:08;22.90;99.90
14401;DHT22;7285;50.894;5.462;2023-07-24T13:47:35;22.70;99.90
14401;DHT22;7285;50.894;5.462;2023-07-24T13:50:02;22.80;99.90
14401;DHT22;7285;50.894;5.462;2023-07-24T13:52:29;23.10;1.00
14401;DHT22;7285;50.894;5.462;2023-07-24T13:54:57;23.20;26.10
14401;DHT22;7285;50.894;5.462;2023-07-24T13:57:26;23.40;1.00
14401;DHT22;7285;50.894;5.462;2023-07-24T13:59:53;23.50;99.90
14401;DHT22;7285;50.894;5.462;2023-07-24T14:02:20;23.40;99.90
14401;DHT22;7285;50.894;5.462;2023-07-24T14:04:47;23.60;99.90
14401;DHT22;7285;50.894;5.462;2023-07-24T14:07:14;23.30;99.90
14401;DHT22;7285;50.894;5.462;2023-07-24T14:09:41;23.40;48.70
14401;DHT22;7285;50.894;5.462;2023-07-24T14:12:10;23.60;1.00
14401;DHT22;7285;50.894;5.462;2023-07-24T14:14:37;23.70;1.00
14401;DHT22;7285;50.894;5.462;2023-07-24T14:17:04;23.60;1.00
14401;DHT22;7285;50.894;5.462;2023-07-24T14:19:31;23.10;1.00
14401;DHT22;7285;50.894;5.462;2023-07-24T14:21:58;23.30;1.00
14401;DHT22;7285;50.894;5.462;2023-07-24T14:24:25;23.80;1.00
14401;DHT22;7285;50.894;5.462;2023-07-24T14:26:52;24.30;1.00
14401;DHT22;7285;50.894;5.462;2023-07-24T14:29:20;23.70;1.00
14401;DHT22;7285;50.894;5.462;2023-07-24T14:31:47;22.90;1.00
14401;DHT22;7285;50.894;5.462;2023-07-24T14:34:14;22.50;1.00
14401;DHT22;7285;50.894;5.462;2023-07-24T14:36:41;22.60;1.00
14401;DHT22;7285;50.894;5.462;2023-07-24T14:39:08;22.80;1.00
14401;DHT22;7285;50.894;5.462;2023-07-24T14:41:35;22.60;1.00
14401;DHT22;7285;50.894;5.462;2023-07-24T14:44:02;22.20;1.00
14401;DHT22;7285;50.894;5.462;2023-07-24T14:46:31;21.90;1.00
14401;DHT22;7285;50.894;5.462;2023-07-24T14:48:58;21.90;1.00
14401;DHT22;7285;50.894;5.462;2023-07-24T14:51:25;22.00;1.00
14401;DHT22;7285;50.894;5.462;2023-07-24T14:53:52;21.90;1.00
14401;DHT22;7285;50.894;5.462;2023-07-24T14:56:19;21.90;1.00
14401;DHT22;7285;50.894;5.462;2023-07-24T14:58:47;21.60;1.00
14401;DHT22;7285;50.894;5.462;2023-07-24T15:01:14;21.20;57.70
14401;DHT22;7285;50.894;5.462;2023-07-24T15:03:43;21.00;99.90
14401;DHT22;7285;50.894;5.462;2023-07-24T15:06:10;20.50;92.30
14401;DHT22;7285;50.894;5.462;2023-07-24T15:08:37;20.50;99.90
14401;DHT22;7285;50.894;5.462;2023-07-24T15:11:04;20.30;1.00
14401;DHT22;7285;50.894;5.462;2023-07-24T15:13:31;20.20;1.00
14401;DHT22;7285;50.894;5.462;2023-07-24T15:15:59;20.00;1.00
14401;DHT22;7285;50.894;5.462;2023-07-24T15:18:26;20.00;1.00
14401;DHT22;7285;50.894;5.462;2023-07-24T15:20:54;20.00;1.00
14401;DHT22;7285;50.894;5.462;2023-07-24T15:23:22;20.50;1.00
14401;DHT22;7285;50.894;5.462;2023-07-24T15:25:49;21.50;1.00
14401;DHT22;7285;50.894;5.462;2023-07-24T15:28:16;22.20;99.90
14401;DHT22;7285;50.894;5.462;2023-07-24T15:30:43;22.30;1.00
14401;DHT22;7285;50.894;5.462;2023-07-24T15:33:10;22.90;99.90
14401;DHT22;7285;50.894;5.462;2023-07-24T15:35:37;23.20;1.00
14401;DHT22;7285;50.894;5.462;2023-07-24T15:38:06;23.40;1.00
14401;DHT22;7285;50.894;5.462;2023-07-24T15:40:33;23.60;1.00
14401;DHT22;7285;50.894;5.462;2023-07-24T15:43:00;23.70;1.00
14401;DHT22;7285;50.894;5.462;2023-07-24T15:45:27;23.50;1.00
14401;DHT22;7285;50.894;5.462;2023-07-24T15:47:54;23.50;1.00
14401;DHT22;7285;50.894;5.462;2023-07-24T15:50:21;23.00;99.90